KBWW

Bowman Regional Airport

Bowman, North Dakota, USA
METAR KBWW 211955Z AUTO 31012KT 10SM CLR 00/M05 A2987 RMK AO2
Observed Flight Rules
Jan-21 @ 19:55 UTC (23 minutes ago) Visual Flight Rules
Wind Visibility Clouds
310° at 12 knots 10 miles
  • Clear skies
Temperatures Readings
Current 0°C / 32°F
Dewpoint -5°C / 23°F
Humidity 69%
Altimeter 29.87" Hg
Pressure 1012 hPa
Elevation 910
METAR KBWW 211955Z AUTO 31012KT 10SM CLR 00/M05 A2987 RMK AO2
Observed Flight Rules
Jan-21 @ 19:55 UTC
(23 minutes ago)
VFR
Wind Visibility
310° at 12 knots 10 miles
Clouds
  • Clear skies
Temperature Dewpoint
0°C / 32°F -5°C / 23°F
Humidity Altimeter Pressure
69% 29.87" Hg 1012 hPa